Hauptseite
METAR-TAF:

METAR-TAF

Flughäfen :

Flughafen Mo i Rana. Røssvoll

Mo I Rana, Norwegen

Breite: 66-22N, Länge: 014-18E, Höhe: 7 m

Beobachtung

Neuester Wetterbericht von vor 28 Minuten, um 07:50 UTC
Wind 4 kt aus Ost/Nordost, variierte zwischen Nord und Ost/Südost
Temperatur 19°C
Luftfeuchtigkeit 52%
Luftdruck 1005 hPa
Sichtweite 10 km oder mehr
keine Wolken unter 1500 m und keine Kumulonimbus oder Gewitterwolken

METAR: ENRA 180750Z 06004KT 010V110 CAVOK 19/09 Q1005

Zeit: 10:18 (08:18 UTC)

Prognose

Neuester Wetterbericht von vor 3 Stunden und 18 Minuten, um 05:00 UTC
Gültige Prognose vom 18 um 06 UTC bis 18 um 15 UTC
Wind 5 kt aus Ost
Sichtweite 10 km oder mehr
Leicht bewölkt in der Höhe von 5000 ft
Zeitweise
vom 18 um 12 UTC bis 18 um 15 UTC
Leicht bewölkt in der Höhe von 4000 ft, Kumulonimbus.

TAF: ENRA 180500Z 1806/1815 08005KT 9999 FEW050 TEMPO 1812/1815 FEW040CB

Wetterbeobachtungen und Prognosen von mehr als 4000 Flughäfen (METAR und TAF Bericht).

Die verfügbaren Stationen werden durch gelbe und rote Markierungen auf der Karte dargestellt.

Führen Sie die Maus auf sie, um den Namen der Station zu sehen.

Darauf klicken, um die Beobachtung von Wetterbeobachtungen und Prognosen zu sehen.

Um die Karte zu ändern : klicken Sie auf den grünen Tasten mit einem schwarzen Kreuz Zum Vergrößern, auf den grünen Button mit einem Gedankenstrich zu verkleinern, oder auf die grünen Pfeile für benachbarte Karten.


METAR-TAF: